createdAt,value
2016-11-23T00:00:20.918Z,985.28
2016-11-23T00:01:20.910Z,985.49
2016-11-23T00:02:20.917Z,985.57
2016-11-23T00:03:20.924Z,985.69
2016-11-23T00:04:20.920Z,985.73
2016-11-23T00:05:20.923Z,985.86
2016-11-23T00:06:20.899Z,985.89
2016-11-23T00:07:20.973Z,985.62
2016-11-23T00:08:20.920Z,986.51
2016-11-23T00:09:20.938Z,986.02
2016-11-23T00:10:20.926Z,985.25
2016-11-23T00:11:20.934Z,984.92
2016-11-23T00:12:20.959Z,983.72
2016-11-23T00:13:20.926Z,982.09
2016-11-23T00:14:20.947Z,980.43
2016-11-23T00:15:20.937Z,978.92
2016-11-23T00:16:20.917Z,977.5
2016-11-23T00:17:21.011Z,976.61
2016-11-23T00:18:20.944Z,975.61
2016-11-23T00:19:20.964Z,974.19
2016-11-23T00:20:20.943Z,973.33
2016-11-23T00:21:20.950Z,972.44
2016-11-23T00:22:20.934Z,972.35
2016-11-23T00:23:20.932Z,971.49
2016-11-23T00:24:20.998Z,970.31
2016-11-23T00:25:21.081Z,969.86
2016-11-23T00:26:20.945Z,969.28
2016-11-23T00:27:21.134Z,968.19
2016-11-23T00:28:20.941Z,968.45
2016-11-23T00:29:20.935Z,968.38
2016-11-23T00:30:20.957Z,968.48
2016-11-23T00:31:20.970Z,968.47
2016-11-23T00:32:22.052Z,968.32
2016-11-23T00:33:20.945Z,968.36
2016-11-23T00:34:20.954Z,968.8
2016-11-23T00:35:20.968Z,969.02
2016-11-23T00:36:20.953Z,969.16
2016-11-23T00:37:20.949Z,969.35
2016-11-23T00:38:20.951Z,968.96
2016-11-23T00:39:20.944Z,969.22
2016-11-23T00:40:20.993Z,969.46
2016-11-23T00:41:22.971Z,969.4
2016-11-23T00:42:31.119Z,969.45
2016-11-23T00:44:44.267Z,970.04
2016-11-23T00:47:00.830Z,966.48
2016-11-23T00:48:49.188Z,962.89
2016-11-23T00:50:34.925Z,966.87
2016-11-23T00:52:06.678Z,967
2016-11-23T00:53:08.277Z,966.69
2016-11-23T00:54:07.785Z,966.62
2016-11-23T00:55:05.305Z,967.18
2016-11-23T00:56:08.092Z,967.62
2016-11-23T00:57:07.685Z,967.41
2016-11-23T00:58:07.161Z,967.89
2016-11-23T00:59:07.593Z,969.04
2016-11-23T01:00:07.616Z,969.6
2016-11-23T01:01:07.629Z,969.94
2016-11-23T01:02:08.240Z,971.19
2016-11-23T01:03:07.661Z,971.96
2016-11-23T01:04:08.048Z,972.55
2016-11-23T01:05:07.879Z,973.41
2016-11-23T01:06:07.791Z,974.43
2016-11-23T01:07:08.064Z,975
2016-11-23T01:08:07.608Z,975.59
2016-11-23T01:09:07.808Z,976.51
2016-11-23T01:10:07.811Z,977.06
2016-11-23T01:11:07.382Z,977.4
2016-11-23T01:12:07.795Z,978.1
2016-11-23T01:13:06.854Z,978.19
2016-11-23T01:14:07.213Z,978.51
2016-11-23T01:15:07.685Z,979.08
2016-11-23T01:16:08.246Z,979.1
2016-11-23T01:17:08.096Z,978.9
2016-11-23T01:18:05.303Z,978.98
2016-11-23T01:19:05.310Z,979.3
2016-11-23T01:20:05.350Z,979.66
2016-11-23T01:21:05.327Z,979.63
2016-11-23T01:22:05.305Z,979.8
2016-11-23T01:23:05.297Z,980.25
2016-11-23T01:24:05.327Z,980.37
2016-11-23T01:25:05.357Z,980.77
2016-11-23T01:26:05.319Z,980.85
2016-11-23T01:27:05.309Z,981.06
2016-11-23T01:28:05.315Z,980.84
2016-11-23T01:29:05.315Z,980.84
2016-11-23T01:30:05.338Z,980.63
2016-11-23T01:31:05.328Z,979.97
2016-11-23T01:32:05.351Z,980.19
2016-11-23T01:33:05.342Z,979.68
2016-11-23T01:34:05.350Z,980.05
2016-11-23T01:35:05.315Z,979.41
2016-11-23T01:36:05.360Z,979.96
2016-11-23T01:37:05.329Z,980.07
2016-11-23T01:38:05.336Z,979.98
2016-11-23T01:39:05.348Z,980.32
2016-11-23T01:40:05.339Z,980.01
2016-11-23T01:41:05.545Z,980.57
2016-11-23T01:42:05.344Z,981.14
2016-11-23T01:43:05.339Z,981.74
2016-11-23T01:44:05.339Z,981.95
2016-11-23T01:45:05.345Z,982.71
2016-11-23T01:46:05.345Z,983.47
2016-11-23T01:47:05.369Z,983.64
2016-11-23T01:48:05.321Z,984.52
2016-11-23T01:49:05.328Z,984.97
2016-11-23T01:50:05.323Z,984.96
2016-11-23T01:51:05.345Z,985.61
2016-11-23T01:52:05.342Z,986.18
2016-11-23T01:53:05.341Z,986.35
2016-11-23T01:54:05.350Z,986.73
2016-11-23T01:55:05.342Z,986.73
2016-11-23T01:56:05.349Z,987.1
2016-11-23T01:57:05.338Z,987.67
2016-11-23T01:58:05.438Z,988.33
2016-11-23T01:59:05.342Z,988.32
2016-11-23T02:00:05.341Z,988.69
2016-11-23T02:01:05.348Z,989.17
2016-11-23T02:02:05.362Z,989.62
2016-11-23T02:03:05.347Z,989.85
2016-11-23T02:04:05.341Z,990.18
2016-11-23T02:05:05.339Z,990.97
2016-11-23T02:06:05.367Z,991
2016-11-23T02:07:05.364Z,991.29
2016-11-23T02:08:05.339Z,991.64
2016-11-23T02:09:05.354Z,992.18
2016-11-23T02:10:05.348Z,992.19
2016-11-23T02:11:05.362Z,992.94
2016-11-23T02:12:05.370Z,992.66
2016-11-23T02:13:05.368Z,992.8
2016-11-23T02:14:05.354Z,993
2016-11-23T02:15:05.364Z,992.59
2016-11-23T02:16:05.354Z,993.09
2016-11-23T02:17:05.372Z,992.75
2016-11-23T02:18:05.351Z,992.4
2016-11-23T02:19:05.360Z,992.77
2016-11-23T02:20:05.344Z,992.86
2016-11-23T02:21:05.373Z,993.37
2016-11-23T02:22:05.388Z,993.38
2016-11-23T02:23:05.364Z,993.25
2016-11-23T02:24:05.373Z,993.5
2016-11-23T02:25:05.379Z,993.95
2016-11-23T02:26:05.356Z,994.17
2016-11-23T02:27:05.518Z,993.81
2016-11-23T02:28:05.373Z,994.38
2016-11-23T02:29:05.379Z,994.34
2016-11-23T02:30:05.369Z,994.45
2016-11-23T02:31:05.374Z,994.73
2016-11-23T02:32:05.369Z,994.99
2016-11-23T02:33:05.382Z,995.23
2016-11-23T02:34:05.363Z,995.15
2016-11-23T02:35:05.382Z,995.4
2016-11-23T02:36:05.371Z,995.47
2016-11-23T02:37:05.373Z,995.32
2016-11-23T02:38:05.408Z,995.21
2016-11-23T02:39:05.381Z,995.11
2016-11-23T02:40:05.388Z,995.01
2016-11-23T02:41:05.378Z,995.08
2016-11-23T02:42:05.365Z,994.93
2016-11-23T02:43:05.402Z,995.3
2016-11-23T02:44:05.430Z,995.23
2016-11-23T02:45:05.371Z,995.15
2016-11-23T02:46:05.385Z,994.97
2016-11-23T02:47:05.372Z,994.91
2016-11-23T02:48:05.385Z,994.37
2016-11-23T02:49:05.371Z,994.63
2016-11-23T02:50:05.385Z,994.72
2016-11-23T02:51:05.387Z,994.66
2016-11-23T02:52:05.382Z,995.4
2016-11-23T02:53:05.403Z,995.09
2016-11-23T02:54:05.398Z,995.48
2016-11-23T02:55:05.404Z,995.86
2016-11-23T02:56:05.383Z,996.25
2016-11-23T02:57:05.399Z,996.54
2016-11-23T02:58:05.408Z,996.55
2016-11-23T02:59:05.384Z,996.84
2016-11-23T03:00:05.389Z,996.75
2016-11-23T03:01:05.398Z,997.01
2016-11-23T03:02:05.396Z,997.03
2016-11-23T03:03:05.398Z,997.34
2016-11-23T03:04:05.398Z,996.87
2016-11-23T03:05:05.414Z,996.37
2016-11-23T03:06:05.396Z,995.32
2016-11-23T03:07:05.402Z,994.1
2016-11-23T03:08:05.409Z,991.69
2016-11-23T03:09:05.395Z,989.13
2016-11-23T03:10:05.384Z,986.61
2016-11-23T03:11:05.397Z,984.04
2016-11-23T03:12:05.403Z,980.68
2016-11-23T03:13:05.446Z,979.06
2016-11-23T03:14:05.438Z,977.22
2016-11-23T03:15:05.391Z,975.26
2016-11-23T03:16:05.408Z,974.03
2016-11-23T03:17:05.401Z,972.39
2016-11-23T03:18:05.699Z,971.28
2016-11-23T03:19:05.408Z,969.37
2016-11-23T03:20:05.406Z,968.61
2016-11-23T03:21:05.423Z,967.74
2016-11-23T03:22:05.415Z,966.62
2016-11-23T03:23:05.425Z,966.55
2016-11-23T03:24:05.421Z,966.32
2016-11-23T03:25:05.412Z,965.78
2016-11-23T03:26:05.412Z,965.78
2016-11-23T03:27:05.418Z,965.57
2016-11-23T03:28:05.426Z,965.68
2016-11-23T03:29:05.420Z,966.08
2016-11-23T03:30:05.405Z,966.41
2016-11-23T03:31:05.453Z,966.81
2016-11-23T03:32:05.422Z,966.79
2016-11-23T03:33:05.455Z,968.08
2016-11-23T03:34:05.442Z,968.21
2016-11-23T03:35:05.423Z,968.82
2016-11-23T03:36:05.412Z,969.5
2016-11-23T03:37:05.430Z,970.07
2016-11-23T03:38:05.418Z,970.31
2016-11-23T03:39:05.432Z,971.26
2016-11-23T03:40:05.411Z,972.22
2016-11-23T03:41:05.417Z,972.35
2016-11-23T03:42:05.435Z,972.7
2016-11-23T03:43:05.430Z,973.38
2016-11-23T03:44:05.438Z,974.21
2016-11-23T03:45:05.421Z,974.76
2016-11-23T03:46:05.419Z,975.85
2016-11-23T03:47:05.436Z,976.29
2016-11-23T03:48:05.424Z,977.55
2016-11-23T03:49:05.494Z,977.65
2016-11-23T03:50:05.438Z,978.5
2016-11-23T03:51:05.436Z,979.27
2016-11-23T03:52:05.433Z,979.08
2016-11-23T03:53:05.442Z,979.98
2016-11-23T03:54:05.461Z,980.75
2016-11-23T03:55:05.472Z,981.3
2016-11-23T03:56:05.424Z,981.72
2016-11-23T03:57:05.445Z,981.81
2016-11-23T03:58:05.488Z,982.61
2016-11-23T03:59:05.441Z,982.93
2016-11-23T04:00:05.449Z,983.46
2016-11-23T04:01:05.458Z,983.47
2016-11-23T04:02:05.441Z,984.12
2016-11-23T04:03:05.443Z,984.99
2016-11-23T04:04:05.448Z,984.94
2016-11-23T04:05:05.450Z,984.97
2016-11-23T04:06:05.445Z,985.64
2016-11-23T04:07:05.441Z,985.71
2016-11-23T04:08:05.460Z,986.13
2016-11-23T04:09:05.455Z,986.11
2016-11-23T04:10:05.577Z,986.59
2016-11-23T04:11:05.436Z,986.76
2016-11-23T04:12:05.456Z,986.78
2016-11-23T04:13:05.452Z,986.9
2016-11-23T04:14:05.471Z,986.91
2016-11-23T04:15:05.516Z,986.93
2016-11-23T04:16:05.462Z,986.93
2016-11-23T04:17:05.451Z,986.9
2016-11-23T04:18:05.464Z,987.28
2016-11-23T04:19:05.448Z,987.38
2016-11-23T04:20:05.474Z,987.51
2016-11-23T04:21:05.462Z,987.47
2016-11-23T04:22:05.454Z,987.31
2016-11-23T04:23:05.448Z,987.79
2016-11-23T04:24:05.467Z,987.73
2016-11-23T04:25:05.465Z,987.93
2016-11-23T04:26:05.467Z,988.13
2016-11-23T04:27:05.468Z,988.36
2016-11-23T04:28:05.454Z,988.44
2016-11-23T04:29:05.461Z,988.53
2016-11-23T04:30:05.494Z,988.88
2016-11-23T04:31:05.464Z,988.93
2016-11-23T04:32:05.452Z,988.48
2016-11-23T04:33:05.461Z,988.28
2016-11-23T04:34:05.458Z,987.81
2016-11-23T04:35:05.473Z,987.62
2016-11-23T04:36:05.454Z,986.97
2016-11-23T04:37:05.458Z,986.8
2016-11-23T04:38:05.469Z,985.48
2016-11-23T04:39:05.477Z,985.07
2016-11-23T04:40:05.496Z,983.65
2016-11-23T04:41:05.470Z,983.37
2016-11-23T04:42:05.480Z,983.38
2016-11-23T04:43:05.471Z,983.05
2016-11-23T04:44:05.480Z,983.49
2016-11-23T04:45:05.502Z,983.31
2016-11-23T04:46:05.508Z,983.9
2016-11-23T04:47:05.491Z,983.47
2016-11-23T04:48:05.486Z,983.38
2016-11-23T04:49:05.478Z,983.4
2016-11-23T04:50:05.481Z,983.22
2016-11-23T04:51:05.499Z,983.32
2016-11-23T04:52:05.503Z,983.64
2016-11-23T04:53:05.467Z,983.48
2016-11-23T04:54:05.485Z,983.71
2016-11-23T04:55:05.475Z,984.19
2016-11-23T04:56:05.509Z,984.06
2016-11-23T04:57:05.482Z,984.37
2016-11-23T04:58:05.477Z,984.82
2016-11-23T04:59:05.481Z,984.46
2016-11-23T05:00:05.503Z,984.92
2016-11-23T05:01:05.501Z,984.85
2016-11-23T05:02:05.492Z,984.24
2016-11-23T05:03:05.505Z,984.14
2016-11-23T05:04:05.500Z,984.18
2016-11-23T05:05:05.490Z,983.53
2016-11-23T05:06:05.506Z,983.54
2016-11-23T05:07:05.504Z,982.45
2016-11-23T05:08:05.510Z,981.31
2016-11-23T05:09:05.501Z,980.23
2016-11-23T05:10:05.507Z,978.68
2016-11-23T05:11:05.518Z,977.37
2016-11-23T05:12:05.499Z,975.44
2016-11-23T05:13:05.509Z,973.32
2016-11-23T05:14:05.506Z,970.45
2016-11-23T05:15:05.516Z,968.55
2016-11-23T05:16:05.506Z,966.96
2016-11-23T05:17:05.507Z,966.1
2016-11-23T05:18:05.546Z,964.62
2016-11-23T05:19:05.517Z,963.17
2016-11-23T05:20:05.494Z,961.41
2016-11-23T05:21:05.510Z,959.13
2016-11-23T05:22:05.506Z,957.45
2016-11-23T05:23:05.497Z,955.61
2016-11-23T05:24:05.507Z,953.55
2016-11-23T05:25:05.496Z,952.21
2016-11-23T05:26:05.506Z,950.05
2016-11-23T05:27:05.512Z,948.46
2016-11-23T05:28:05.503Z,947.13
2016-11-23T05:29:05.509Z,945.41
2016-11-23T05:30:05.516Z,944.66
2016-11-23T05:31:05.523Z,942.7
2016-11-23T05:32:05.552Z,940.92
2016-11-23T05:33:05.516Z,940
2016-11-23T05:34:05.544Z,939.1
2016-11-23T05:35:05.511Z,937.68
2016-11-23T05:36:05.500Z,936.68
2016-11-23T05:37:05.541Z,935.32
2016-11-23T05:38:05.516Z,933.84
2016-11-23T05:39:05.521Z,932.82
2016-11-23T05:40:05.520Z,931.49
2016-11-23T05:41:05.526Z,930.34
2016-11-23T05:42:05.550Z,929.16
2016-11-23T05:43:05.531Z,928.19
2016-11-23T05:44:05.547Z,927.19
2016-11-23T05:45:05.516Z,926.38
2016-11-23T05:46:05.521Z,925.33
2016-11-23T05:47:05.538Z,924.73
2016-11-23T05:48:05.535Z,923.32
2016-11-23T05:49:05.534Z,922.41
2016-11-23T05:50:05.512Z,922.05
2016-11-23T05:51:05.538Z,921.36
2016-11-23T05:52:05.538Z,920.86
2016-11-23T05:53:05.542Z,920.24
2016-11-23T05:54:05.532Z,919.44
2016-11-23T05:55:05.520Z,918.63
2016-11-23T05:56:05.525Z,917.35
2016-11-23T05:57:05.541Z,916.48
2016-11-23T05:58:05.572Z,915.72
2016-11-23T05:59:05.546Z,914.29
2016-11-23T06:00:05.543Z,913.17
2016-11-23T06:01:05.540Z,912.51
2016-11-23T06:02:05.547Z,911.72
2016-11-23T06:03:05.559Z,910.83
2016-11-23T06:04:05.544Z,910.65
2016-11-23T06:05:05.553Z,909.97
2016-11-23T06:06:05.559Z,909.69
2016-11-23T06:07:05.530Z,909.33
2016-11-23T06:08:05.572Z,908.17
2016-11-23T06:09:05.550Z,907.3
2016-11-23T06:10:05.547Z,906.66
2016-11-23T06:11:05.539Z,906.22
2016-11-23T06:12:05.613Z,905.19
2016-11-23T06:13:05.564Z,903.7
2016-11-23T06:14:05.556Z,902.37
2016-11-23T06:15:05.532Z,901.61
2016-11-23T06:16:05.537Z,901.09
2016-11-23T06:17:05.543Z,900
2016-11-23T06:18:05.555Z,899.55
2016-11-23T06:19:05.573Z,898.19
2016-11-23T06:20:05.573Z,898.52
2016-11-23T06:21:05.561Z,898.63
2016-11-23T06:22:05.541Z,897.92
2016-11-23T06:23:05.709Z,897.61
2016-11-23T06:24:05.574Z,897.93
2016-11-23T06:25:05.539Z,897.26
2016-11-23T06:26:05.550Z,897.8
2016-11-23T06:27:05.547Z,898.02
2016-11-23T06:28:05.551Z,898.52
2016-11-23T06:29:05.591Z,898.41
2016-11-23T06:30:05.577Z,898.95
2016-11-23T06:31:05.558Z,899.79
2016-11-23T06:32:05.556Z,899.96
2016-11-23T06:33:05.546Z,900.64
2016-11-23T06:34:05.578Z,901.31
2016-11-23T06:35:05.545Z,901.33
2016-11-23T06:36:05.660Z,901.35
2016-11-23T06:37:05.559Z,901.77
2016-11-23T06:38:05.566Z,901.63
2016-11-23T06:39:05.573Z,901.52
2016-11-23T06:40:05.574Z,901.65
2016-11-23T06:41:05.560Z,901.63
2016-11-23T06:42:05.566Z,902.32
2016-11-23T06:43:05.560Z,901.99
2016-11-23T06:44:05.593Z,902.09
2016-11-23T06:45:05.589Z,903.07
2016-11-23T06:46:05.564Z,903.73
2016-11-23T06:47:05.554Z,903.63
2016-11-23T06:48:05.564Z,904.62
2016-11-23T06:49:05.559Z,905.27
2016-11-23T06:50:05.575Z,905.44
2016-11-23T06:51:05.563Z,906.28
2016-11-23T06:52:05.562Z,906.98
2016-11-23T06:53:05.563Z,907.37
2016-11-23T06:54:05.574Z,907.5
2016-11-23T06:55:05.583Z,907.79
2016-11-23T06:56:05.571Z,908.33
2016-11-23T06:57:05.556Z,908.32
2016-11-23T06:58:05.576Z,909.1
2016-11-23T06:59:05.587Z,908.9
2016-11-23T07:00:05.592Z,909.16
2016-11-23T07:01:05.569Z,908.65
2016-11-23T07:02:05.588Z,908.14
2016-11-23T07:03:05.568Z,908.28
2016-11-23T07:04:05.576Z,908.45
2016-11-23T07:05:05.592Z,908.61
2016-11-23T07:06:05.570Z,908.58
2016-11-23T07:07:05.570Z,908.28
2016-11-23T07:08:05.566Z,908.16
2016-11-23T07:09:05.569Z,907.7
2016-11-23T07:10:05.601Z,908.11
2016-11-23T07:11:05.585Z,907.83
2016-11-23T07:12:05.566Z,907.89
2016-11-23T07:13:05.579Z,907.34
2016-11-23T07:14:05.589Z,907.24
2016-11-23T07:15:05.601Z,906.8
2016-11-23T07:16:05.583Z,906.66
2016-11-23T07:17:05.588Z,906.44
2016-11-23T07:18:05.581Z,906.32
2016-11-23T07:19:05.588Z,905.85
2016-11-23T07:20:05.610Z,905.99
2016-11-23T07:21:05.594Z,905.52
2016-11-23T07:22:05.602Z,905.69
2016-11-23T07:23:05.594Z,905.54
2016-11-23T07:24:05.594Z,905.39
2016-11-23T07:25:05.615Z,905.7
2016-11-23T07:26:05.606Z,905.48
2016-11-23T07:27:05.592Z,905.34
2016-11-23T07:28:05.601Z,905.66
2016-11-23T07:29:05.594Z,905.55
2016-11-23T07:30:05.610Z,905.51
2016-11-23T07:31:05.606Z,905.02
2016-11-23T07:32:05.593Z,905.06
2016-11-23T07:33:05.608Z,904.61
2016-11-23T07:34:05.592Z,904.74
2016-11-23T07:35:05.609Z,904.6
2016-11-23T07:36:05.591Z,904.37
2016-11-23T07:37:05.597Z,904.84
2016-11-23T07:38:05.606Z,904.82
2016-11-23T07:39:05.604Z,905.32
2016-11-23T07:40:05.618Z,905.71
2016-11-23T07:41:05.635Z,906.14
2016-11-23T07:42:05.620Z,906.57
2016-11-23T07:43:05.914Z,907.1
2016-11-23T07:44:05.612Z,907.5
2016-11-23T07:45:05.625Z,908.13
2016-11-23T07:46:05.596Z,909.34
2016-11-23T07:47:05.602Z,909.82
2016-11-23T07:48:05.586Z,910.92
2016-11-23T07:49:05.684Z,912.47
2016-11-23T07:50:05.661Z,913.64
2016-11-23T07:51:05.613Z,914.26
2016-11-23T07:52:05.613Z,914.98
2016-11-23T07:53:05.611Z,916.6
2016-11-23T07:54:05.618Z,917.84
2016-11-23T07:55:05.659Z,918.61
2016-11-23T07:56:05.639Z,918.95
2016-11-23T07:57:05.631Z,920.62
2016-11-23T07:58:05.615Z,921.35
2016-11-23T07:59:05.621Z,923.04
2016-11-23T08:00:05.625Z,923.56
2016-11-23T08:01:05.619Z,924.16
2016-11-23T08:02:05.645Z,924.77
2016-11-23T08:03:05.622Z,924.96
2016-11-23T08:04:05.643Z,925.86
2016-11-23T08:05:05.650Z,926.46
2016-11-23T08:06:05.619Z,927.02
2016-11-23T08:07:05.639Z,927.61
2016-11-23T08:08:05.645Z,928.38
2016-11-23T08:09:05.631Z,929.07
2016-11-23T08:10:05.643Z,930.1
2016-11-23T08:11:05.644Z,931.23
2016-11-23T08:12:05.630Z,932.48
2016-11-23T08:13:05.636Z,933.77
2016-11-23T08:14:05.636Z,935.32
2016-11-23T08:15:05.775Z,936.78
2016-11-23T08:16:05.646Z,937.28
2016-11-23T08:17:05.643Z,938.17
2016-11-23T08:18:05.653Z,939.48
2016-11-23T08:19:05.644Z,940.61
2016-11-23T08:20:05.647Z,942.06
2016-11-23T08:21:05.656Z,942.99
2016-11-23T08:22:05.641Z,944.82
2016-11-23T08:23:05.810Z,946.2
2016-11-23T08:24:05.638Z,947.79
2016-11-23T08:25:05.624Z,948.71
2016-11-23T08:26:05.665Z,950.33
2016-11-23T08:27:05.633Z,951.36
2016-11-23T08:28:05.630Z,952.26
2016-11-23T08:29:05.644Z,954.07
2016-11-23T08:30:05.662Z,955.76
2016-11-23T08:31:05.656Z,957.54
2016-11-23T08:32:05.643Z,958.93
2016-11-23T08:33:05.656Z,959.9
2016-11-23T08:34:05.653Z,961.55
2016-11-23T08:35:05.651Z,962.68
2016-11-23T08:36:05.688Z,964.2
2016-11-23T08:37:05.640Z,964.32
2016-11-23T08:38:05.635Z,964.54
2016-11-23T08:39:05.653Z,965
2016-11-23T08:40:05.656Z,965.46
2016-11-23T08:41:05.680Z,965.51
2016-11-23T08:42:05.664Z,966.9
2016-11-23T08:43:05.680Z,965.87
2016-11-23T08:44:05.677Z,965.2
2016-11-23T08:45:05.660Z,964.19
2016-11-23T08:46:05.686Z,963.54
2016-11-23T08:47:05.677Z,963.95
2016-11-23T08:48:05.638Z,964.3
2016-11-23T08:49:05.670Z,965.46
2016-11-23T08:50:05.657Z,966
2016-11-23T08:51:06.307Z,967.36
2016-11-23T08:52:05.687Z,968.74
2016-11-23T08:53:05.671Z,969.45
2016-11-23T08:54:05.664Z,970.06
2016-11-23T08:55:05.660Z,971.69
2016-11-23T08:56:05.665Z,973.33
2016-11-23T08:57:05.689Z,975.84
2016-11-23T08:58:05.686Z,977.71
2016-11-23T08:59:05.678Z,979.3
2016-11-23T09:00:05.670Z,980.41
2016-11-23T09:01:05.670Z,981.23
2016-11-23T09:02:05.683Z,982.5
2016-11-23T09:03:05.677Z,983.38
2016-11-23T09:04:05.684Z,984.78
2016-11-23T09:05:05.655Z,986.19
2016-11-23T09:06:05.666Z,987.79
2016-11-23T09:07:05.685Z,988.97
2016-11-23T09:08:05.691Z,989.66
2016-11-23T09:09:05.688Z,989.56
2016-11-23T09:10:05.687Z,989.93
2016-11-23T09:11:05.678Z,990.42
2016-11-23T09:12:05.672Z,989.87
2016-11-23T09:13:05.684Z,990.38
2016-11-23T09:14:05.671Z,990.47
2016-11-23T09:15:05.679Z,991.41
2016-11-23T09:16:05.681Z,991.94
2016-11-23T09:17:05.675Z,992.64
2016-11-23T09:18:05.687Z,992.71
2016-11-23T09:19:05.692Z,993.25
2016-11-23T09:20:05.672Z,995.21
2016-11-23T09:21:05.740Z,995.3
2016-11-23T09:22:05.683Z,996.23
2016-11-23T09:23:05.681Z,997.21
2016-11-23T09:24:05.738Z,997.97
2016-11-23T09:25:05.729Z,998.99
2016-11-23T09:26:05.687Z,1000.02
2016-11-23T09:27:05.709Z,1002.36
2016-11-23T09:28:05.699Z,1004.36
2016-11-23T09:29:05.717Z,1006.3
2016-11-23T09:30:05.697Z,1007.86
2016-11-23T09:31:05.700Z,1009.39
2016-11-23T09:32:05.694Z,1010.47
2016-11-23T09:33:05.716Z,1011.51
2016-11-23T09:34:05.970Z,1013.01
2016-11-23T09:35:05.694Z,1014.32
2016-11-23T09:36:05.704Z,1015.72
2016-11-23T09:37:05.692Z,1017.6
2016-11-23T09:38:05.691Z,1018.45
2016-11-23T09:39:05.708Z,1019.43
2016-11-23T09:40:05.723Z,1020.73
2016-11-23T09:41:05.718Z,1022.24
2016-11-23T09:42:05.708Z,1023.92
2016-11-23T09:43:05.712Z,1025.57
2016-11-23T09:44:05.711Z,1026.53
2016-11-23T09:45:05.723Z,1028.21
2016-11-23T09:46:05.696Z,1028.98
2016-11-23T09:47:05.701Z,1030.55
2016-11-23T09:48:05.708Z,1031.95
2016-11-23T09:49:05.699Z,1033.89
2016-11-23T09:50:05.722Z,1035.25
2016-11-23T09:51:05.699Z,1036.25
2016-11-23T09:52:05.721Z,1037.4
2016-11-23T09:53:05.714Z,1038.12
2016-11-23T09:54:05.714Z,1038.54
2016-11-23T09:55:05.730Z,1039.67
2016-11-23T09:56:05.738Z,1040.89
2016-11-23T09:57:05.725Z,1041.99
2016-11-23T09:58:05.716Z,1043.33
2016-11-23T09:59:05.706Z,1043.52
2016-11-23T10:00:05.732Z,1042.57
2016-11-23T10:01:05.721Z,1041.19
2016-11-23T10:02:05.713Z,1040.25
2016-11-23T10:03:05.712Z,1038.65
2016-11-23T10:04:05.739Z,1037.59
2016-11-23T10:05:05.728Z,1037.07
2016-11-23T10:06:05.741Z,1037.05
2016-11-23T10:07:06.301Z,1037.52
2016-11-23T10:08:05.736Z,1037.79
2016-11-23T10:09:05.725Z,1037.29
2016-11-23T10:10:05.729Z,1035.94
2016-11-23T10:11:05.735Z,1035.45
2016-11-23T10:12:05.850Z,1035.39
2016-11-23T10:13:05.734Z,1036.61
2016-11-23T10:14:06.277Z,1038.29
2016-11-23T10:15:06.183Z,1040.5
2016-11-23T10:16:05.741Z,1042.75
2016-11-23T10:17:05.722Z,1045.37
2016-11-23T10:18:05.729Z,1047.75
2016-11-23T10:19:05.719Z,1049.67
2016-11-23T10:20:05.739Z,1051.56
2016-11-23T10:21:05.742Z,1053.74
2016-11-23T10:22:05.751Z,1055.74
2016-11-23T10:23:05.732Z,1058.41
2016-11-23T10:24:05.752Z,1060.35
2016-11-23T10:25:05.745Z,1062.4
2016-11-23T10:26:05.771Z,1064.42
2016-11-23T10:27:05.758Z,1066.26
2016-11-23T10:28:05.731Z,1068.2
2016-11-23T10:29:05.742Z,1069.89
2016-11-23T10:30:05.745Z,1071.72
2016-11-23T10:31:05.995Z,1073.31
2016-11-23T10:32:05.750Z,1075.03
2016-11-23T10:33:05.756Z,1076.36
2016-11-23T10:34:05.752Z,1078.3
2016-11-23T10:35:05.745Z,1080.46
2016-11-23T10:36:05.781Z,1080.98
2016-11-23T10:37:05.747Z,1081.04
2016-11-23T10:38:05.762Z,1082.18
2016-11-23T10:39:05.769Z,1082.34
2016-11-23T10:40:05.749Z,1081.8
2016-11-23T10:41:05.765Z,1081.29
2016-11-23T10:42:05.767Z,1080.1
2016-11-23T10:43:05.747Z,1079.16
2016-11-23T10:44:05.801Z,1079.05
2016-11-23T10:45:05.770Z,1078.6
2016-11-23T10:46:05.769Z,1077.42
2016-11-23T10:47:05.760Z,1076.82
2016-11-23T10:48:05.760Z,1075.17
2016-11-23T10:49:05.770Z,1074.89
2016-11-23T10:50:05.766Z,1074.15
2016-11-23T10:51:05.780Z,1073.2
2016-11-23T10:52:05.762Z,1072.45
2016-11-23T10:53:05.760Z,1073.51
2016-11-23T10:54:05.777Z,1075.23
2016-11-23T10:55:05.776Z,1076.49
2016-11-23T10:56:05.770Z,1076.77
2016-11-23T10:57:05.759Z,1076.65
2016-11-23T10:58:05.773Z,1077.83
2016-11-23T10:59:05.776Z,1078.93
2016-11-23T11:00:05.771Z,1080.22
2016-11-23T11:01:05.804Z,1081.35
2016-11-23T11:02:05.769Z,1082.09
2016-11-23T11:03:05.786Z,1083.78
2016-11-23T11:04:05.779Z,1084.75
2016-11-23T11:05:05.786Z,1085.38
2016-11-23T11:06:05.789Z,1085.72
2016-11-23T11:07:05.808Z,1085.52
2016-11-23T11:08:05.773Z,1085.79
2016-11-23T11:09:05.782Z,1084.8
2016-11-23T11:10:05.777Z,1084.37
2016-11-23T11:11:05.786Z,1083.93
2016-11-23T11:12:05.802Z,1083.53
2016-11-23T11:13:05.783Z,1083.52
2016-11-23T11:14:05.780Z,1084.45
2016-11-23T11:15:05.792Z,1085.51
2016-11-23T11:16:05.802Z,1087.18
2016-11-23T11:17:05.802Z,1088.08
2016-11-23T11:18:05.787Z,1088.61
2016-11-23T11:19:05.808Z,1089.18
2016-11-23T11:20:05.790Z,1090.01
2016-11-23T11:21:05.791Z,1090.59
2016-11-23T11:22:05.815Z,1091.57
2016-11-23T11:23:05.793Z,1091.97
2016-11-23T11:24:05.812Z,1092.54
2016-11-23T11:25:05.803Z,1093.75
2016-11-23T11:26:05.787Z,1095.37
2016-11-23T11:27:05.803Z,1096.6
2016-11-23T11:28:05.783Z,1096.84
2016-11-23T11:29:05.806Z,1096.86
2016-11-23T11:30:05.809Z,1097.12
2016-11-23T11:31:05.789Z,1097.82
2016-11-23T11:32:05.825Z,1098.82
2016-11-23T11:33:05.806Z,1099.72
2016-11-23T11:34:05.805Z,1100.15
2016-11-23T11:35:05.828Z,1100.56
2016-11-23T11:36:05.815Z,1101.77
2016-11-23T11:37:05.829Z,1101.94
2016-11-23T11:38:05.810Z,1102.6
2016-11-23T11:39:05.801Z,1103.22
2016-11-23T11:40:05.819Z,1104.77
2016-11-23T11:41:05.791Z,1107.28
2016-11-23T11:42:05.848Z,1109.6
2016-11-23T11:43:05.810Z,1111.82
2016-11-23T11:44:05.825Z,1113.79
2016-11-23T11:45:05.801Z,1115.38
2016-11-23T11:46:05.810Z,1116.54
2016-11-23T11:47:05.826Z,1117.04
2016-11-23T11:48:05.819Z,1117.31
2016-11-23T11:49:05.824Z,1117.11
2016-11-23T11:50:05.819Z,1116.86
2016-11-23T11:51:05.814Z,1116.16
2016-11-23T11:52:05.842Z,1115.38
2016-11-23T11:53:05.844Z,1114.83
2016-11-23T11:54:05.851Z,1113.55
2016-11-23T11:55:05.842Z,1111.88
2016-11-23T11:56:05.848Z,1110.06
2016-11-23T11:57:05.852Z,1108.93
2016-11-23T11:58:05.856Z,1107.85
2016-11-23T11:59:05.846Z,1107.41
2016-11-23T12:00:05.833Z,1107.28
2016-11-23T12:01:05.833Z,1107.06
2016-11-23T12:02:05.823Z,1107.21
2016-11-23T12:03:05.948Z,1107.86
2016-11-23T12:04:05.838Z,1108.64
2016-11-23T12:05:05.838Z,1109.28
2016-11-23T12:06:05.844Z,1109.66
2016-11-23T12:07:05.844Z,1110.09
2016-11-23T12:08:05.847Z,1109.37
2016-11-23T12:09:05.848Z,1108.63
2016-11-23T12:10:05.854Z,1108.35
2016-11-23T12:11:05.848Z,1108.25
2016-11-23T12:12:05.842Z,1108.3
2016-11-23T12:13:05.864Z,1108.72
2016-11-23T12:14:06.039Z,1108.64
2016-11-23T12:15:05.840Z,1108.31
2016-11-23T12:16:05.921Z,1107.79
2016-11-23T12:17:05.905Z,1107.48
2016-11-23T12:18:05.848Z,1106.94
2016-11-23T12:19:05.909Z,1106.39
2016-11-23T12:20:05.860Z,1105.21
2016-11-23T12:21:05.884Z,1104.04
2016-11-23T12:22:05.857Z,1103.28
2016-11-23T12:23:05.864Z,1102.73
2016-11-23T12:24:05.889Z,1102.4
2016-11-23T12:25:05.855Z,1102.88
2016-11-23T12:26:05.846Z,1103.52
2016-11-23T12:27:05.857Z,1103.56
2016-11-23T12:28:05.855Z,1103.77
2016-11-23T12:29:05.871Z,1103.86
2016-11-23T12:30:05.856Z,1103.99